Time;durP1;ratioP1;P1;durP2;ratioP2;P2;SDS_P1;SDS_P2;PMS_P1;PMS_P2;Temp;Humidity;BMP_temperature;BMP_pressure;BME280_temperature;BME280_humidity;BME280_pressure;Samples;Min_cycle;Max_cycle;Signal;HPM_P1;HPM_P2
2023/09/23 00:01:09;;;;;;;4.85;4.65;;;;;;;11.92;100.00;100377.56;6080746;23;20042;-66
2023/09/23 00:03:36;;;;;;;5.05;4.78;;;;;;;11.02;100.00;100259.66;6046552;23;20678;-67
2023/09/23 00:06:03;;;;;;;5.22;4.90;;;;;;;11.94;100.00;100372.22;6026371;23;20041;-66
2023/09/23 00:08:30;;;;;;;5.05;4.85;;;;;;;11.56;100.00;100323.69;6052659;23;20034;-66
2023/09/23 00:10:56;;;;;;;5.03;4.78;;;;;;;11.96;100.00;100380.88;6026775;23;20090;-66
2023/09/23 00:13:23;;;;;;;5.25;4.95;;;;;;;11.94;100.00;100386.22;6053574;23;20477;-66
2023/09/23 00:15:49;;;;;;;5.30;4.90;;;;;;;11.92;100.00;100385.47;6027745;23;20023;-66
2023/09/23 00:18:17;;;;;;;5.20;4.90;;;;;;;11.85;100.00;100378.88;6053077;23;20666;-66
2023/09/23 00:20:46;;;;;;;4.93;4.72;;;;;;;11.74;100.00;100384.78;6026267;23;20035;-66
2023/09/23 00:23:13;;;;;;;5.03;4.82;;;;;;;11.09;100.00;100300.38;6026849;23;20046;-66
2023/09/23 00:25:40;;;;;;;5.00;4.80;;;;;;;11.50;100.00;100394.19;6024938;23;20027;-66
2023/09/23 00:28:11;;;;;;;4.80;4.60;;;;;;;11.12;100.00;100364.03;6054705;23;20017;-66
2023/09/23 00:30:38;;;;;;;4.97;4.78;;;;;;;11.22;100.00;100402.91;6025530;23;20033;-66
2023/09/23 00:33:05;;;;;;;4.97;4.70;;;;;;;11.16;100.00;100409.34;6026548;23;20114;-67
2023/09/23 00:35:34;;;;;;;5.18;4.88;;;;;;;11.09;100.00;100415.94;6054095;23;20646;-66
2023/09/23 00:38:01;;;;;;;5.05;4.85;;;;;;;11.01;100.00;100412.91;6001725;23;20234;-65
2023/09/23 00:40:32;;;;;;;5.18;4.97;;;;;;;10.74;100.00;100382.94;6056305;23;20088;-66
2023/09/23 00:43:11;;;;;;;5.28;4.97;;;;;;;10.87;100.00;100426.84;6024649;23;20051;-65
2023/09/23 00:45:47;;;;;;;5.38;5.07;;;;;;;10.82;100.00;100423.63;6025292;23;20035;-68
2023/09/23 00:48:18;;;;;;;4.90;4.70;;;;;;;10.70;100.00;100415.50;6058032;23;21326;-65
2023/09/23 00:50:46;;;;;;;5.30;5.00;;;;;;;10.71;100.00;100432.13;6029573;23;20094;-68
2023/09/23 00:53:14;;;;;;;5.13;4.82;;;;;;;10.68;100.00;100437.53;6055219;23;20593;-66
2023/09/23 00:55:42;;;;;;;5.50;5.20;;;;;;;10.42;100.00;100410.13;6027956;23;20038;-66
2023/09/23 00:58:14;;;;;;;6.10;5.00;;;;;;;10.59;100.00;100449.41;6053126;23;20026;-66
2023/09/23 01:00:44;;;;;;;5.30;5.00;;;;;;;10.56;100.00;100458.28;6028344;23;20027;-67
2023/09/23 01:03:11;;;;;;;5.30;5.00;;;;;;;10.54;100.00;100461.91;6024822;23;20027;-66
2023/09/23 01:05:39;;;;;;;5.78;5.38;;;;;;;10.56;100.00;100463.53;6055059;23;20206;-66
2023/09/23 01:08:20;;;;;;;4.95;4.75;;;;;;;10.55;100.00;100459.22;6076562;23;20026;-66
2023/09/23 01:10:48;;;;;;;5.40;5.10;;;;;;;10.42;100.00;100450.31;6049473;23;20078;-66
2023/09/23 01:13:19;;;;;;;5.55;5.20;;;;;;;10.42;100.00;100460.81;6053923;23;20091;-66
2023/09/23 01:15:46;;;;;;;5.13;4.82;;;;;;;10.39;100.00;100461.00;6057557;23;20014;-66
2023/09/23 01:18:13;;;;;;;5.13;4.82;;;;;;;9.99;100.00;100413.31;6027941;23;20021;-67
2023/09/23 01:20:44;;;;;;;5.32;5.03;;;;;;;10.31;100.00;100473.69;6054231;23;20030;-67
2023/09/23 01:23:11;;;;;;;4.90;4.70;;;;;;;10.28;100.00;100476.44;6028604;23;20010;-67
2023/09/23 01:25:39;;;;;;;5.10;4.80;;;;;;;10.25;100.00;100479.25;6083451;23;20034;-68
2023/09/23 01:28:12;;;;;;;5.50;5.18;;;;;;;10.25;100.00;100482.72;6051340;23;20081;-67
2023/09/23 01:30:43;;;;;;;5.00;4.70;;;;;;;10.22;100.00;100488.09;6082007;23;20412;-67
2023/09/23 01:33:10;;;;;;;4.82;4.63;;;;;;;10.20;100.00;100487.34;6054339;23;20049;-67
2023/09/23 01:35:37;;;;;;;4.90;4.70;;;;;;;10.17;100.00;100495.38;6082986;23;20049;-67
2023/09/23 01:38:04;;;;;;;5.20;4.82;;;;;;;8.53;100.00;100235.09;6053312;23;20094;-67
2023/09/23 01:40:33;;;;;;;5.45;5.10;;;;;;;9.46;100.00;100399.56;6037193;23;20014;-67
2023/09/23 01:43:00;;;;;;;6.45;5.57;;;;;;;10.07;100.00;100505.53;6054853;23;20033;-67
2023/09/23 01:45:26;;;;;;;4.95;4.65;;;;;;;10.08;100.00;100509.84;6054712;23;20230;-67
2023/09/23 01:47:56;;;;;;;5.28;4.97;;;;;;;9.44;100.00;100408.38;6082562;23;20437;-67
2023/09/23 01:50:27;;;;;;;5.10;4.80;;;;;;;10.03;100.00;100514.47;6050429;23;20022;-67
2023/09/23 01:52:59;;;;;;;5.13;4.82;;;;;;;10.01;100.00;100525.97;6078543;23;20014;-68
2023/09/23 01:55:26;;;;;;;5.43;5.03;;;;;;;7.62;100.00;100160.31;6052086;23;20448;-67
2023/09/23 01:57:52;;;;;;;5.38;4.97;;;;;;;9.56;100.00;100454.91;6054344;23;20120;-67
2023/09/23 02:00:22;;;;;;;5.05;4.80;;;;;;;9.98;100.00;100521.72;6082951;23;20038;-67
2023/09/23 02:02:49;;;;;;;4.95;4.72;;;;;;;9.92;100.00;100522.91;6051831;23;20089;-67
2023/09/23 02:05:18;;;;;;;5.10;4.70;;;;;;;9.36;100.00;100441.06;6081865;23;20030;-67
2023/09/23 02:07:47;;;;;;;5.22;4.93;;;;;;;9.98;100.00;100551.44;6055746;23;20014;-67
2023/09/23 02:10:15;;;;;;;5.35;5.05;;;;;;;9.80;100.00;100531.38;6058489;23;20071;-67
2023/09/23 02:12:44;;;;;;;5.63;5.32;;;;;;;9.86;100.00;100545.97;6054432;23;20097;-67
2023/09/23 02:15:17;;;;;;;4.70;4.50;;;;;;;9.85;100.00;100546.91;6088304;23;20032;-66
2023/09/23 02:17:47;;;;;;;5.60;5.28;;;;;;;9.92;100.00;100564.00;6055948;23;20035;-66
2023/09/23 02:20:22;;;;;;;5.20;4.90;;;;;;;9.90;100.00;100563.22;6084940;23;20433;-67
2023/09/23 02:22:54;;;;;;;5.43;5.10;;;;;;;9.54;100.00;100522.25;6056425;23;20081;-67
2023/09/23 02:25:25;;;;;;;4.88;4.57;;;;;;;9.90;100.00;100573.72;6085538;23;20119;-67
2023/09/23 02:27:52;;;;;;;5.75;5.28;;;;;;;8.92;100.00;100415.38;6052123;23;20029;-68
2023/09/23 02:30:19;;;;;;;5.07;4.78;;;;;;;9.90;100.00;100579.81;6083202;23;20520;-67
2023/09/23 02:32:49;;;;;;;7.22;5.65;;;;;;;9.87;100.00;100577.34;6057151;23;20034;-66
2023/09/23 02:35:16;;;;;;;5.63;4.97;;;;;;;9.86;100.00;100591.38;6052591;23;20037;-67
2023/09/23 02:37:45;;;;;;;5.00;4.70;;;;;;;9.83;100.00;100594.16;6029440;23;20071;-67
2023/09/23 02:40:14;;;;;;;5.30;4.97;;;;;;;9.81;100.00;100597.78;6058061;23;20052;-66
2023/09/23 02:42:42;;;;;;;4.95;4.75;;;;;;;9.46;100.00;100550.59;6052833;23;20033;-67
2023/09/23 02:45:10;;;;;;;4.90;4.50;;;;;;;9.76;100.00;100603.22;6081730;23;20084;-67
2023/09/23 02:47:40;;;;;;;4.55;4.35;;;;;;;9.70;100.00;100603.53;6052363;23;20038;-67
2023/09/23 02:50:09;;;;;;;4.85;4.60;;;;;;;9.72;100.00;100617.41;6083605;23;20097;-67
2023/09/23 02:52:40;;;;;;;4.55;4.35;;;;;;;9.71;100.00;100621.81;6050902;23;20030;-67
2023/09/23 02:55:15;;;;;;;4.50;4.30;;;;;;;9.71;100.00;100618.34;6057634;23;20022;-67
2023/09/23 02:57:49;;;;;;;5.05;4.80;;;;;;;9.70;100.00;100614.91;6056646;23;20061;-67
2023/09/23 03:00:17;;;;;;;5.00;4.75;;;;;;;9.69;100.00;100620.22;6055060;23;20526;-67
2023/09/23 03:02:45;;;;;;;4.95;4.75;;;;;;;9.39;100.00;100589.34;6081689;23;20017;-67
2023/09/23 03:05:18;;;;;;;5.22;4.93;;;;;;;8.74;100.00;100472.06;6030577;23;20484;-66
2023/09/23 03:07:48;;;;;;;4.50;4.30;;;;;;;9.59;100.00;100620.66;6024962;23;20035;-67
2023/09/23 03:10:19;;;;;;;5.03;4.72;;;;;;;9.56;100.00;100617.31;6027002;23;20023;-66
2023/09/23 03:12:56;;;;;;;4.82;4.63;;;;;;;9.51;100.00;100619.34;6026845;23;20138;-66
2023/09/23 03:15:33;;;;;;;4.50;4.30;;;;;;;9.48;100.00;100620.34;6021997;23;20039;-67
2023/09/23 03:18:00;;;;;;;4.90;4.65;;;;;;;9.37;100.00;100614.78;6023570;23;20066;-67
2023/09/23 03:20:27;;;;;;;4.72;4.50;;;;;;;9.31;100.00;100607.22;6003987;23;20555;-67
2023/09/23 03:22:54;;;;;;;4.85;4.65;;;;;;;9.17;100.00;100598.25;6022857;23;20051;-66
2023/09/23 03:25:21;;;;;;;5.57;5.10;;;;;;;9.23;100.00;100610.19;6027514;23;20029;-67
2023/09/23 03:27:48;;;;;;;4.95;4.65;;;;;;;9.24;100.00;100614.53;6024956;23;21216;-67
2023/09/23 03:30:19;;;;;;;4.32;4.13;;;;;;;9.34;100.00;100628.00;6025769;23;20011;-67
2023/09/23 03:32:46;;;;;;;4.80;4.60;;;;;;;9.32;100.00;100633.34;6002345;23;20088;-67
2023/09/23 03:35:23;;;;;;;4.78;4.47;;;;;;;9.29;100.00;100624.78;6024003;23;20023;-67
2023/09/23 03:37:51;;;;;;;4.97;4.72;;;;;;;9.29;100.00;100633.47;6026476;23;20054;-67
2023/09/23 03:40:24;;;;;;;4.88;4.47;;;;;;;9.29;100.00;100625.63;6027731;23;20097;-67
2023/09/23 03:42:51;;;;;;;4.25;4.05;;;;;;;9.23;100.00;100623.28;6026680;23;20350;-67
2023/09/23 03:45:17;;;;;;;4.97;4.20;;;;;;;9.07;100.00;100594.38;6027660;23;20105;-66
2023/09/23 03:47:45;;;;;;;4.60;4.40;;;;;;;9.31;100.00;100629.00;6024595;23;20091;-67
2023/09/23 03:50:15;;;;;;;4.40;4.20;;;;;;;8.85;100.00;100551.81;6025976;23;20026;-65
2023/09/23 03:52:42;;;;;;;4.40;4.20;;;;;;;9.39;100.00;100639.97;6022211;23;20063;-68
2023/09/23 03:55:11;;;;;;;4.57;4.20;;;;;;;9.41;100.00;100645.13;6034789;23;20053;-64
2023/09/23 03:57:38;;;;;;;4.30;4.10;;;;;;;9.10;100.00;100591.63;6030227;23;20231;-66
2023/09/23 04:00:16;;;;;;;4.40;4.18;;;;;;;9.46;100.00;100655.38;6028335;23;20649;-66
2023/09/23 04:02:45;;;;;;;4.60;4.40;;;;;;;9.48;100.00;100657.03;6001066;23;20029;-66
2023/09/23 04:05:13;;;;;;;4.20;4.00;;;;;;;9.45;100.00;100659.78;6053453;23;20032;-66
2023/09/23 04:07:41;;;;;;;4.90;4.70;;;;;;;9.49;100.00;100669.19;6085235;23;20038;-66
2023/09/23 04:10:09;;;;;;;4.50;4.30;;;;;;;9.54;100.00;100672.44;6057036;23;20103;-67
2023/09/23 04:12:36;;;;;;;4.25;4.05;;;;;;;9.53;100.00;100672.50;6084236;23;20028;-65
2023/09/23 04:15:05;;;;;;;4.60;4.20;;;;;;;9.06;100.00;100592.69;6055000;23;20215;-66
2023/09/23 04:17:31;;;;;;;4.45;4.25;;;;;;;9.58;100.00;100678.34;6060369;23;20030;-65
2023/09/23 04:19:57;;;;;;;4.60;4.40;;;;;;;9.63;100.00;100672.91;6086150;23;20691;-65
2023/09/23 04:22:24;;;;;;;4.20;4.00;;;;;;;9.60;100.00;100681.75;6054641;23;20027;-66
2023/09/23 04:24:50;;;;;;;4.60;4.40;;;;;;;9.55;100.00;100671.50;6078898;23;20593;-66
2023/09/23 04:27:17;;;;;;;4.35;4.15;;;;;;;9.59;100.00;100694.00;6056311;23;20096;-66
2023/09/23 04:29:44;;;;;;;4.50;4.30;;;;;;;9.57;100.00;100695.84;6077029;23;20049;-66
2023/09/23 04:32:13;;;;;;;4.57;4.28;;;;;;;9.41;100.00;100673.09;6052890;23;20033;-66
2023/09/23 04:34:39;;;;;;;4.22;4.03;;;;;;;9.53;100.00;100693.47;6054813;23;20029;-65
2023/09/23 04:37:06;;;;;;;4.15;3.85;;;;;;;9.55;100.00;100700.31;6056470;23;20052;-66
2023/09/23 04:39:32;;;;;;;4.68;4.38;;;;;;;9.54;100.00;100703.00;6055556;23;20075;-66
2023/09/23 04:42:00;;;;;;;4.22;4.03;;;;;;;9.53;100.00;100712.66;6054583;23;20128;-66
2023/09/23 04:44:27;;;;;;;4.93;4.53;;;;;;;9.51;100.00;100711.88;6054195;23;20006;-66
2023/09/23 04:46:53;;;;;;;4.30;4.10;;;;;;;9.54;100.00;100705.63;6055389;23;20035;-66
2023/09/23 04:49:20;;;;;;;4.40;4.20;;;;;;;9.49;100.00;100716.34;6053140;23;20018;-66
2023/09/23 04:51:46;;;;;;;5.22;4.68;;;;;;;9.49;100.00;100718.13;6082246;23;20393;-66
2023/09/23 04:54:13;;;;;;;4.95;4.57;;;;;;;8.64;100.00;100578.06;6053423;23;20057;-66
2023/09/23 04:56:42;;;;;;;4.47;4.18;;;;;;;9.16;100.00;100680.34;6083892;23;20018;-66
2023/09/23 04:59:09;;;;;;;4.30;4.10;;;;;;;9.47;100.00;100725.19;6055322;23;20050;-66
2023/09/23 05:01:35;;;;;;;4.22;4.03;;;;;;;9.48;100.00;100737.34;6052232;23;20041;-66
2023/09/23 05:04:08;;;;;;;4.40;4.20;;;;;;;9.42;100.00;100721.94;6082679;23;20097;-66
2023/09/23 05:06:36;;;;;;;;;;;;;;;9.47;100.00;100736.53;6054408;23;20034;-67
2023/09/23 05:09:03;;;;;;;4.72;4.45;;;;;;;9.29;100.00;100724.28;6079068;23;19920;-66
2023/09/23 05:11:29;;;;;;;4.10;3.90;;;;;;;9.32;100.00;100742.47;6055472;23;20026;-67
2023/09/23 05:13:56;;;;;;;4.50;4.30;;;;;;;9.38;100.00;100757.88;6081784;23;20086;-66
2023/09/23 05:16:22;;;;;;;4.32;4.13;;;;;;;9.40;100.00;100763.91;6053115;23;20047;-66
2023/09/23 05:18:49;;;;;;;4.63;4.32;;;;;;;9.41;100.00;100765.63;6078750;23;20022;-68
2023/09/23 05:21:18;;;;;;;4.20;4.00;;;;;;;9.42;100.00;100769.09;6050168;23;20084;-65
2023/09/23 05:23:48;;;;;;;4.22;4.03;;;;;;;9.27;100.00;100757.56;6081346;23;20151;-66
2023/09/23 05:26:16;;;;;;;4.60;4.30;;;;;;;9.44;100.00;100788.19;6051837;23;20057;-65
2023/09/23 05:28:43;;;;;;;5.50;5.10;;;;;;;9.42;100.00;100785.66;6051432;23;20100;-68
2023/09/23 05:31:13;;;;;;;4.60;4.28;;;;;;;9.16;100.00;100750.16;6081217;23;20697;-65
2023/09/23 05:33:41;;;;;;;4.80;4.35;;;;;;;9.26;100.00;100764.56;6054539;23;20022;-65
2023/09/23 05:36:07;;;;;;;4.25;4.05;;;;;;;9.48;100.00;100806.34;6081318;23;20169;-65
2023/09/23 05:38:36;;;;;;;4.72;4.53;;;;;;;9.37;100.00;100778.00;6057220;23;20044;-66
2023/09/23 05:41:03;;;;;;;4.80;4.50;;;;;;;8.88;100.00;100714.78;6084206;23;20034;-66
2023/09/23 05:43:30;;;;;;;4.43;4.22;;;;;;;9.55;100.00;100818.22;6051940;23;20104;-67
2023/09/23 05:45:56;;;;;;;4.47;4.28;;;;;;;9.34;100.00;100782.53;6082928;23;20101;-67
2023/09/23 05:48:23;;;;;;;5.32;4.82;;;;;;;9.63;100.00;100827.50;6052384;23;20034;-67
2023/09/23 05:50:50;;;;;;;4.70;4.50;;;;;;;9.69;100.00;100830.69;6079284;23;20034;-67
2023/09/23 05:53:17;;;;;;;4.90;4.60;;;;;;;9.47;100.00;100799.38;6058685;23;20039;-66
2023/09/23 05:55:43;;;;;;;4.43;4.22;;;;;;;9.45;100.00;100790.75;6080363;23;20857;-66
2023/09/23 05:58:12;;;;;;;4.38;4.18;;;;;;;9.84;100.00;100855.31;6052750;23;20018;-66
2023/09/23 06:00:39;;;;;;;4.50;4.30;;;;;;;9.53;100.00;100790.41;6049993;23;20061;-66
2023/09/23 06:03:05;;;;;;;4.90;4.70;;;;;;;9.95;100.00;100853.06;6078140;23;20097;-66
2023/09/23 06:05:32;;;;;;;4.78;4.47;;;;;;;10.02;100.00;100863.25;6053709;23;20009;-66
2023/09/23 06:07:58;;;;;;;7.93;4.65;;;;;;;10.03;100.00;100859.72;6050626;23;20037;-66
2023/09/23 06:10:25;;;;;;;4.90;4.60;;;;;;;10.09;100.00;100873.38;6051944;23;20019;-67
2023/09/23 06:12:51;;;;;;;4.78;4.57;;;;;;;10.16;100.00;100877.44;6052472;23;20010;-67
2023/09/23 06:15:18;;;;;;;4.65;4.45;;;;;;;10.21;100.00;100887.69;6082129;23;20033;-69
2023/09/23 06:17:44;;;;;;;4.63;4.32;;;;;;;10.26;100.00;100892.72;6053882;23;20085;-68
2023/09/23 06:20:11;;;;;;;4.47;4.28;;;;;;;10.32;100.00;100902.94;6048766;23;20038;-69
2023/09/23 06:22:40;;;;;;;4.60;4.40;;;;;;;10.38;100.00;100905.28;6051640;23;20117;-69
2023/09/23 06:25:07;;;;;;;4.70;4.50;;;;;;;10.43;100.00;100912.94;6076806;23;20075;-67
2023/09/23 06:27:33;;;;;;;4.50;4.30;;;;;;;10.50;100.00;100915.19;6043505;23;20232;-68
2023/09/23 06:30:02;;;;;;;4.80;4.53;;;;;;;10.57;100.00;100918.38;6076780;23;20088;-67
2023/09/23 06:32:29;;;;;;;8.88;4.80;;;;;;;10.57;100.00;100908.72;6049971;23;20038;-68
2023/09/23 06:34:56;;;;;;;4.40;4.20;;;;;;;10.69;100.00;100928.25;6081600;23;20028;-68
2023/09/23 06:37:22;;;;;;;4.40;4.20;;;;;;;10.77;100.00;100936.59;6052508;23;20074;-68
2023/09/23 06:39:49;;;;;;;4.82;4.63;;;;;;;10.53;100.00;100886.16;6080886;23;20679;-69
2023/09/23 06:42:15;;;;;;;4.78;4.53;;;;;;;10.95;100.00;100939.25;6049018;23;20527;-67
2023/09/23 06:44:42;;;;;;;4.60;4.40;;;;;;;11.06;100.00;100938.72;6050900;23;20027;-67
2023/09/23 06:47:09;;;;;;;4.50;4.30;;;;;;;11.14;100.00;100934.75;6079490;23;20050;-67
2023/09/23 06:49:35;;;;;;;4.45;4.25;;;;;;;11.22;100.00;100938.78;6052447;23;20026;-67
2023/09/23 06:52:02;;;;;;;5.10;4.75;;;;;;;11.32;100.00;100942.63;6078712;23;20018;-67
2023/09/23 06:54:28;;;;;;;5.43;5.00;;;;;;;11.45;100.00;100948.13;6055392;23;20030;-67
2023/09/23 06:56:55;;;;;;;4.80;4.60;;;;;;;11.57;100.00;100953.59;6046767;23;20191;-68
2023/09/23 06:59:21;;;;;;;4.90;4.60;;;;;;;11.65;100.00;100950.56;6057257;23;20018;-68
2023/09/23 07:01:48;;;;;;;4.90;4.60;;;;;;;11.72;100.00;100957.16;6058375;23;20031;-67
2023/09/23 07:04:15;;;;;;;5.03;4.82;;;;;;;11.76;100.00;100945.56;6053000;23;20042;-68
2023/09/23 07:06:41;;;;;;;5.20;4.90;;;;;;;11.92;100.00;100955.31;6085503;23;20030;-68
2023/09/23 07:09:08;;;;;;;4.97;4.78;;;;;;;11.96;100.00;100951.56;6056898;23;20066;-67
2023/09/23 07:11:34;;;;;;;4.85;4.57;;;;;;;12.11;100.00;100942.84;6055414;23;20021;-68
2023/09/23 07:14:03;;;;;;;4.90;4.70;;;;;;;12.24;100.00;100936.91;6053960;23;20034;-68
2023/09/23 07:16:30;;;;;;;4.70;4.50;;;;;;;12.35;100.00;100930.13;6053484;23;20042;-69
2023/09/23 07:18:57;;;;;;;7.20;5.13;;;;;;;12.46;100.00;100916.34;6051891;23;20082;-68
2023/09/23 07:21:23;;;;;;;4.60;4.40;;;;;;;12.62;100.00;100907.59;6078381;23;20095;-67
2023/09/23 07:23:49;;;;;;;4.90;4.63;;;;;;;12.64;100.00;100876.75;6054164;23;20040;-67
2023/09/23 07:26:22;;;;;;;4.72;4.53;;;;;;;12.90;100.00;100893.66;6051026;23;20380;-66
2023/09/23 07:28:51;;;;;;;;;;;;;;;13.01;100.00;100880.72;6080131;23;20063;-67
2023/09/23 07:31:18;;;;;;;4.95;4.65;;;;;;;12.48;100.00;100769.72;6056101;23;19925;-67
2023/09/23 07:33:45;;;;;;;5.00;4.70;;;;;;;12.99;100.00;100840.44;6083441;23;20125;-68
2023/09/23 07:36:12;;;;;;;5.47;5.10;;;;;;;13.35;100.00;100869.03;6055195;23;20527;-68
2023/09/23 07:38:39;;;;;;;4.72;4.53;;;;;;;13.46;100.00;100857.81;6089249;23;20037;-68
2023/09/23 07:41:09;;;;;;;5.30;4.80;;;;;;;13.44;100.00;100829.84;6056726;23;20033;-68
2023/09/23 07:43:38;;;;;;;4.70;4.50;;;;;;;13.59;100.00;100818.34;6053907;23;20095;-68
2023/09/23 07:46:05;;;;;;;5.40;5.07;;;;;;;13.36;100.00;100751.25;6055412;23;20037;-68
2023/09/23 07:48:31;;;;;;;5.05;4.65;;;;;;;13.32;100.00;100715.47;6082765;23;20089;-68
2023/09/23 07:50:58;;;;;;;4.85;4.65;;;;;;;13.86;100.00;100786.72;6054804;23;20037;-68
2023/09/23 07:53:24;;;;;;;4.90;4.70;;;;;;;14.06;100.00;100787.22;6080784;23;20080;-67
2023/09/23 07:55:51;;;;;;;5.18;4.97;;;;;;;14.06;100.00;100759.03;6054000;23;20587;-68
2023/09/23 07:58:18;;;;;;;5.13;4.82;;;;;;;14.10;100.00;100744.69;6054523;23;20026;-68
2023/09/23 08:00:44;;;;;;;5.30;4.90;;;;;;;14.07;100.00;100715.88;6054813;23;20661;-68
2023/09/23 08:03:10;;;;;;;5.40;5.10;;;;;;;13.49;100.00;100611.56;6053147;23;20055;-68
2023/09/23 08:05:37;;;;;;;5.30;4.78;;;;;;;14.16;100.00;100722.34;6055341;23;20014;-68
2023/09/23 08:08:04;;;;;;;5.35;5.00;;;;;;;14.17;100.00;100708.16;6055472;23;20030;-68
2023/09/23 08:10:33;;;;;;;5.00;4.80;;;;;;;13.99;100.00;100649.56;6061692;23;20685;-68
2023/09/23 08:13:00;;;;;;;5.13;4.88;;;;;;;14.43;100.00;100698.47;6054072;23;20536;-68
2023/09/23 08:15:26;;;;;;;5.13;4.88;;;;;;;14.30;100.00;100645.69;6079884;23;20026;-68
2023/09/23 08:17:53;;;;;;;7.80;5.18;;;;;;;14.43;100.00;100647.47;6056885;23;20073;-68
2023/09/23 08:20:23;;;;;;;5.63;5.28;;;;;;;14.43;100.00;100635.13;6084846;23;20034;-68
2023/09/23 08:22:50;;;;;;;5.32;4.93;;;;;;;14.78;100.00;100650.34;6052236;23;20038;-68
2023/09/23 08:25:17;;;;;;;5.20;4.75;;;;;;;14.51;100.00;100580.00;6053343;23;20033;-68
2023/09/23 08:27:44;;;;;;;4.97;4.75;;;;;;;14.54;100.00;100581.56;6083269;23;20018;-68
2023/09/23 08:30:12;;;;;;;4.97;4.78;;;;;;;14.88;100.00;100621.47;6054605;23;20042;-69
2023/09/23 08:32:39;;;;;;;5.35;4.97;;;;;;;14.96;100.00;100640.25;6083853;23;20076;-68
2023/09/23 08:35:07;;;;;;;5.40;5.10;;;;;;;15.08;100.00;100633.25;6052241;23;20080;-69
2023/09/23 08:37:35;;;;;;;5.38;4.90;;;;;;;15.19;100.00;100608.69;6058584;23;20018;-68
2023/09/23 08:40:11;;;;;;;5.30;5.07;;;;;;;15.33;100.00;100635.81;6049915;23;20042;-69
2023/09/23 08:42:39;;;;;;;5.07;4.88;;;;;;;15.39;100.00;100601.91;6081194;23;20021;-68
2023/09/23 08:45:09;;;;;;;5.22;4.93;;;;;;;15.09;100.00;100530.03;6053171;23;20038;-68
2023/09/23 08:47:39;;;;;;;4.97;4.78;;;;;;;15.54;100.00;100555.81;6050878;23;20021;-67
2023/09/23 08:50:08;;;;;;;5.50;5.20;;;;;;;15.20;100.00;100486.13;6079782;23;20025;-68
2023/09/23 08:52:35;;;;;;;5.90;4.90;;;;;;;14.75;100.00;100434.78;6055847;23;20014;-68
2023/09/23 08:55:07;;;;;;;5.63;5.22;;;;;;;15.27;100.00;100524.34;6084116;23;20040;-69
2023/09/23 08:57:34;;;;;;;6.07;5.47;;;;;;;15.49;100.00;100581.75;6054461;23;20018;-68
2023/09/23 09:00:00;;;;;;;5.40;4.90;;;;;;;15.20;100.00;100513.41;6055406;23;20184;-68
2023/09/23 09:02:29;;;;;;;5.10;4.85;;;;;;;15.59;100.00;100576.63;6054536;23;20002;-68
2023/09/23 09:04:57;;;;;;;6.35;5.93;;;;;;;15.69;100.00;100552.00;6085110;23;20049;-68
2023/09/23 09:07:25;;;;;;;5.70;5.10;;;;;;;15.94;100.00;100560.75;6056101;23;20096;-68
2023/09/23 09:09:52;;;;;;;5.47;5.18;;;;;;;16.04;98.14;100500.03;6083846;23;20014;-69
2023/09/23 09:12:20;;;;;;;5.40;5.10;;;;;;;15.90;95.18;100453.47;6050579;23;20092;-68
2023/09/23 09:14:51;;;;;;;5.20;4.85;;;;;;;15.85;94.54;100461.72;6054338;23;20544;-68
2023/09/23 09:17:19;;;;;;;5.30;4.95;;;;;;;15.71;95.93;100464.59;6077281;23;20086;-68
2023/09/23 09:19:46;;;;;;;5.32;5.03;;;;;;;16.06;96.47;100512.16;6055966;23;20051;-69
2023/09/23 09:22:17;;;;;;;5.10;4.90;;;;;;;16.30;98.51;100569.47;6078596;23;20535;-68
2023/09/23 09:24:44;;;;;;;5.57;5.10;;;;;;;15.88;93.39;100431.56;6055809;23;20022;-68
2023/09/23 09:27:12;;;;;;;6.75;5.55;;;;;;;16.59;92.93;100511.50;6050347;23;20085;-69
2023/09/23 09:29:41;;;;;;;5.63;5.10;;;;;;;16.67;89.88;100445.47;6084147;23;20636;-69
2023/09/23 09:32:11;;;;;;;6.35;5.75;;;;;;;17.27;87.27;100452.97;6054400;23;20038;-69
2023/09/23 09:34:46;;;;;;;5.55;5.20;;;;;;;17.59;87.40;100486.53;6050466;23;20070;-68
2023/09/23 09:37:13;;;;;;;7.18;5.65;;;;;;;17.92;83.99;100429.72;6033644;23;20030;-69
2023/09/23 09:40:00;;;;;;;5.82;5.20;;;;;;;18.12;83.43;100447.44;6051938;23;20026;-68
2023/09/23 09:42:33;;;;;;;5.65;5.35;;;;;;;17.78;80.65;100369.00;6080759;23;20034;-68
2023/09/23 09:45:00;;;;;;;5.68;5.28;;;;;;;17.38;78.81;100320.28;6053709;23;20095;-68
2023/09/23 09:47:27;;;;;;;5.43;5.13;;;;;;;17.05;80.60;100364.63;6071242;23;20003;-67
2023/09/23 09:49:57;;;;;;;9.43;5.38;;;;;;;17.09;80.83;100373.16;6052916;23;20021;-68
2023/09/23 09:52:25;;;;;;;5.30;5.10;;;;;;;16.98;82.72;100427.09;6077594;23;20044;-68
2023/09/23 09:54:58;;;;;;;8.20;5.40;;;;;;;16.87;82.40;100448.34;6047415;23;20041;-69
2023/09/23 09:57:28;;;;;;;6.00;5.60;;;;;;;16.80;83.65;100447.13;6080802;23;20077;-68
2023/09/23 09:59:59;;;;;;;5.10;4.90;;;;;;;16.74;81.18;100350.44;6051696;23;20084;-67
2023/09/23 10:02:27;;;;;;;5.70;5.30;;;;;;;17.18;79.35;100398.03;6079628;23;20010;-67
2023/09/23 10:05:02;;;;;;;5.70;5.40;;;;;;;17.20;81.02;100451.78;6053520;23;20063;-67
2023/09/23 10:07:48;;;;;;;6.60;5.45;;;;;;;17.23;79.12;100422.38;6081809;23;20089;-69
2023/09/23 10:10:15;;;;;;;6.28;5.78;;;;;;;17.51;78.11;100418.22;6052321;23;20030;-68
2023/09/23 10:12:48;;;;;;;5.50;5.20;;;;;;;17.89;78.28;100445.94;6079472;23;20678;-69
2023/09/23 10:15:24;;;;;;;5.10;4.90;;;;;;;17.77;76.58;100394.72;6049841;23;20097;-69
2023/09/23 10:17:54;;;;;;;6.15;5.75;;;;;;;17.81;75.54;100368.75;6074455;23;20040;-68
2023/09/23 10:20:24;;;;;;;5.85;5.47;;;;;;;18.01;73.78;100356.41;6053735;23;20097;-69
2023/09/23 10:22:52;;;;;;;5.50;5.20;;;;;;;16.58;72.76;100106.28;6080458;23;20697;-68
2023/09/23 10:25:19;;;;;;;5.60;5.32;;;;;;;17.74;70.76;100206.56;6053142;23;20057;-68
2023/09/23 10:27:56;;;;;;;5.35;5.13;;;;;;;16.87;70.78;100093.19;6053373;23;20026;-70
2023/09/23 10:30:23;;;;;;;5.45;5.15;;;;;;;18.45;71.74;100365.69;6085674;23;20298;-69
2023/09/23 10:32:49;;;;;;;5.47;5.28;;;;;;;18.26;72.31;100374.47;6055037;23;20366;-68
2023/09/23 10:35:22;;;;;;;6.90;6.50;;;;;;;17.78;72.12;100303.50;6052018;23;20030;-68
2023/09/23 10:37:51;;;;;;;5.70;5.30;;;;;;;17.53;71.78;100241.16;6083075;23;20022;-68
2023/09/23 10:40:21;;;;;;;5.70;5.30;;;;;;;18.33;72.87;100401.31;6051712;23;20523;-69
2023/09/23 10:42:48;;;;;;;5.28;5.07;;;;;;;18.49;71.94;100411.41;6055026;23;20085;-67
2023/09/23 10:45:19;;;;;;;5.50;5.20;;;;;;;18.62;69.30;100336.72;6085064;23;20022;-67
2023/09/23 10:47:46;;;;;;;5.40;5.10;;;;;;;18.47;69.00;100321.19;6057688;23;20022;-68
2023/09/23 10:50:13;;;;;;;5.85;5.55;;;;;;;18.02;69.26;100284.56;6058477;23;20626;-67
2023/09/23 10:52:39;;;;;;;5.13;4.93;;;;;;;18.19;72.03;100426.47;6032467;23;20011;-69
2023/09/23 10:55:10;;;;;;;6.00;5.50;;;;;;;18.37;69.36;100364.72;6055836;23;20042;-68
2023/09/23 10:57:37;;;;;;;5.50;5.20;;;;;;;18.45;69.79;100378.13;6054097;23;20019;-67
2023/09/23 11:00:13;;;;;;;5.60;5.30;;;;;;;18.79;68.29;100372.41;6086595;23;20089;-68
2023/09/23 11:02:42;;;;;;;5.15;4.95;;;;;;;18.58;67.58;100336.16;6055273;23;20018;-68
2023/09/23 11:05:09;;;;;;;6.03;5.35;;;;;;;18.29;68.51;100357.41;6056119;23;20032;-68
2023/09/23 11:07:36;;;;;;;5.70;5.40;;;;;;;18.24;69.65;100395.03;6082812;23;20049;-69
2023/09/23 11:10:03;;;;;;;5.60;5.30;;;;;;;17.78;68.19;100300.00;6057355;23;20093;-69
2023/09/23 11:12:32;;;;;;;5.30;5.00;;;;;;;18.18;67.55;100355.75;6082249;23;20010;-67
2023/09/23 11:14:59;;;;;;;5.40;5.10;;;;;;;18.45;67.50;100397.56;6056148;23;20097;-69
2023/09/23 11:17:30;;;;;;;5.68;5.28;;;;;;;18.24;68.21;100397.69;6079293;23;20098;-67
2023/09/23 11:19:58;;;;;;;5.57;5.27;;;;;;;18.19;69.92;100489.38;6055047;23;20042;-68
2023/09/23 11:22:26;;;;;;;5.63;5.32;;;;;;;18.00;68.04;100399.84;6076967;23;20502;-68
2023/09/23 11:24:54;;;;;;;5.68;5.38;;;;;;;18.38;70.34;100525.78;6055766;23;20023;-69
2023/09/23 11:27:22;;;;;;;6.25;5.28;;;;;;;18.83;70.26;100557.28;6054983;23;20034;-67